createdAt,value
2019-03-22T00:00:56.047Z,17
2019-03-22T00:05:58.526Z,17
2019-03-22T00:11:00.980Z,15
2019-03-22T00:16:03.478Z,17
2019-03-22T00:21:05.935Z,18
2019-03-22T00:26:08.395Z,19
2019-03-22T00:31:10.920Z,20
2019-03-22T00:36:13.318Z,18
2019-03-22T00:41:15.771Z,20
2019-03-22T00:46:18.470Z,22
2019-03-22T00:51:20.762Z,20
2019-03-22T00:56:23.173Z,21
2019-03-22T01:06:28.298Z,19
2019-03-22T01:11:30.586Z,21
2019-03-22T01:16:33.028Z,20
2019-03-22T01:21:35.618Z,21
2019-03-22T01:26:37.946Z,19
2019-03-22T01:31:40.419Z,20
2019-03-22T01:36:44.361Z,20
2019-03-22T01:41:45.504Z,18
2019-03-22T01:46:47.812Z,21
2019-03-22T01:51:50.306Z,18
2019-03-22T01:56:52.791Z,20
2019-03-22T02:01:55.205Z,18
2019-03-22T02:06:57.671Z,19
2019-03-22T02:12:00.211Z,18
2019-03-22T02:17:02.588Z,19
2019-03-22T02:22:05.061Z,19
2019-03-22T02:27:07.502Z,19
2019-03-22T02:32:09.973Z,19
2019-03-22T02:37:12.468Z,19
2019-03-22T02:42:15.011Z,18
2019-03-22T02:47:17.507Z,19
2019-03-22T02:52:19.864Z,17
2019-03-22T02:57:22.301Z,17
2019-03-22T03:02:24.793Z,17
2019-03-22T03:07:27.244Z,17
2019-03-22T03:12:29.703Z,18
2019-03-22T03:17:32.120Z,18
2019-03-22T03:22:34.617Z,18
2019-03-22T03:27:37.079Z,19
2019-03-22T03:32:39.621Z,18
2019-03-22T03:37:42.030Z,19
2019-03-22T03:42:44.491Z,18
2019-03-22T03:47:46.888Z,16
2019-03-22T03:52:49.648Z,17
2019-03-22T03:57:51.868Z,18
2019-03-22T04:02:54.278Z,19
2019-03-22T04:08:01.754Z,17
2019-03-22T04:12:59.344Z,20
2019-03-22T04:18:01.668Z,19
2019-03-22T04:23:04.497Z,18
2019-03-22T04:28:06.586Z,21
2019-03-22T04:33:09.088Z,20
2019-03-22T04:38:11.541Z,21
2019-03-22T04:43:13.977Z,20
2019-03-22T04:48:16.521Z,20
2019-03-22T04:53:21.526Z,24
2019-03-22T04:58:21.356Z,19
2019-03-22T05:03:23.819Z,21
2019-03-22T05:13:28.747Z,20
2019-03-22T05:18:31.321Z,19
2019-03-22T05:23:33.694Z,19
2019-03-22T05:28:36.221Z,19
2019-03-22T05:33:38.587Z,20
2019-03-22T05:38:41.092Z,19
2019-03-22T05:43:43.510Z,18
2019-03-22T05:48:45.960Z,17
2019-03-22T05:53:48.421Z,17
2019-03-22T05:58:50.925Z,19
2019-03-22T06:03:53.345Z,16
2019-03-22T06:08:55.916Z,18
2019-03-22T06:13:58.441Z,16
2019-03-22T06:19:00.744Z,17
2019-03-22T06:24:03.205Z,18
2019-03-22T06:29:05.778Z,18
2019-03-22T06:34:08.256Z,17
2019-03-22T06:39:10.676Z,17
2019-03-22T06:44:13.158Z,16
2019-03-22T06:49:15.629Z,14
2019-03-22T06:54:18.100Z,12
2019-03-22T06:59:20.440Z,10
2019-03-22T07:04:22.896Z,10
2019-03-22T07:09:25.357Z,10
2019-03-22T07:14:27.871Z,10
2019-03-22T07:19:30.257Z,9
2019-03-22T07:24:32.719Z,12
2019-03-22T07:29:35.227Z,11
2019-03-22T07:34:37.632Z,11
2019-03-22T07:39:40.131Z,11
2019-03-22T07:44:42.608Z,11
2019-03-22T07:49:45.042Z,11
2019-03-22T07:54:47.606Z,11
2019-03-22T07:59:50.005Z,11
2019-03-22T08:04:52.392Z,12
2019-03-22T08:09:54.916Z,11
2019-03-22T08:14:57.867Z,11
2019-03-22T08:19:59.801Z,11
2019-03-22T08:25:02.391Z,10
2019-03-22T08:30:04.716Z,12
2019-03-22T08:35:07.254Z,11
2019-03-22T08:40:09.729Z,12
2019-03-22T08:45:12.132Z,11
2019-03-22T08:50:14.589Z,11
2019-03-22T08:55:17.136Z,13
2019-03-22T09:00:19.583Z,12
2019-03-22T09:05:22.012Z,12
2019-03-22T09:10:24.390Z,13
2019-03-22T09:15:26.860Z,16
2019-03-22T09:20:29.376Z,16
2019-03-22T09:25:31.760Z,17
2019-03-22T09:30:34.365Z,17
2019-03-22T09:35:36.715Z,15
2019-03-22T09:40:39.202Z,13
2019-03-22T09:45:41.630Z,14
2019-03-22T09:50:44.090Z,13
2019-03-22T09:55:46.591Z,12
2019-03-22T10:00:49.170Z,10
2019-03-22T10:05:51.501Z,11
2019-03-22T10:10:53.957Z,13
2019-03-22T10:15:56.516Z,12
2019-03-22T10:20:58.879Z,11
2019-03-22T10:26:01.405Z,13
2019-03-22T10:31:03.832Z,12
2019-03-22T10:36:06.276Z,11
2019-03-22T10:41:08.763Z,11
2019-03-22T10:46:11.295Z,9
2019-03-22T10:51:13.677Z,8
2019-03-22T10:56:16.186Z,8
2019-03-22T11:01:18.614Z,8
2019-03-22T11:06:25.655Z,7
2019-03-22T11:11:23.520Z,9
2019-03-22T11:16:26.122Z,9
2019-03-22T11:21:28.468Z,9
2019-03-22T11:26:30.915Z,9
2019-03-22T11:31:39.683Z,8
2019-03-22T11:36:35.910Z,10
2019-03-22T11:41:38.323Z,10
2019-03-22T11:46:40.829Z,11
2019-03-22T11:56:45.696Z,10
2019-03-22T12:01:48.193Z,12
2019-03-22T12:06:50.651Z,12
2019-03-22T12:11:53.120Z,10
2019-03-22T12:16:56.678Z,11
2019-03-22T12:21:58.068Z,11
2019-03-22T12:27:00.703Z,11
2019-03-22T12:32:02.936Z,12
2019-03-22T12:37:05.391Z,13
2019-03-22T12:42:07.867Z,11
2019-03-22T12:47:10.399Z,8
2019-03-22T12:52:12.838Z,8
2019-03-22T12:57:15.246Z,9
2019-03-22T13:02:17.705Z,6
2019-03-22T13:07:20.165Z,6
2019-03-22T13:12:22.609Z,5
2019-03-22T13:17:25.117Z,6
2019-03-22T13:22:27.573Z,5
2019-03-22T13:27:29.999Z,5
2019-03-22T13:32:32.631Z,4
2019-03-22T13:37:34.936Z,4
2019-03-22T13:42:37.431Z,5
2019-03-22T13:47:39.916Z,5
2019-03-22T13:52:42.627Z,3
2019-03-22T13:57:44.859Z,3
2019-03-22T14:02:47.234Z,2
2019-03-22T14:07:49.652Z,3
2019-03-22T14:12:52.130Z,3
2019-03-22T14:17:54.642Z,2
2019-03-22T14:22:57.054Z,3
2019-03-22T14:27:59.539Z,3
2019-03-22T14:38:04.418Z,2
2019-03-22T14:43:06.914Z,2
2019-03-22T14:48:09.431Z,3
2019-03-22T14:53:11.877Z,1
2019-03-22T14:58:14.243Z,2
2019-03-22T15:03:22.467Z,2
2019-03-22T15:08:19.173Z,2
2019-03-22T15:13:21.662Z,2
2019-03-22T15:18:24.131Z,4
2019-03-22T15:23:26.585Z,2
2019-03-22T15:28:29.057Z,2
2019-03-22T15:33:34.020Z,2
2019-03-22T15:43:36.366Z,2
2019-03-22T15:48:38.850Z,2
2019-03-22T15:53:41.347Z,2
2019-03-22T15:58:43.766Z,1
2019-03-22T16:03:46.389Z,1
2019-03-22T16:08:48.680Z,1
2019-03-22T16:13:51.227Z,1
2019-03-22T16:18:53.607Z,2
2019-03-22T16:23:56.047Z,2
2019-03-22T16:28:58.500Z,1
2019-03-22T16:34:00.955Z,2
2019-03-22T16:39:03.475Z,3
2019-03-22T16:44:05.934Z,3
2019-03-22T16:49:08.610Z,3
2019-03-22T16:54:10.928Z,4
2019-03-22T16:59:13.300Z,4
2019-03-22T17:04:15.737Z,3
2019-03-22T17:09:18.283Z,5
2019-03-22T17:14:21.793Z,7
2019-03-22T17:19:23.392Z,9
2019-03-22T17:24:25.579Z,7
2019-03-22T17:29:27.991Z,12
2019-03-22T17:34:30.441Z,11
2019-03-22T17:39:32.949Z,14
2019-03-22T17:44:35.368Z,16
2019-03-22T17:49:47.495Z,19
2019-03-22T17:54:40.286Z,18
2019-03-22T17:59:42.753Z,11
2019-03-22T18:04:45.231Z,8
2019-03-22T18:09:47.730Z,10
2019-03-22T18:14:50.142Z,9
2019-03-22T18:19:53.480Z,8
2019-03-22T18:24:55.069Z,11
2019-03-22T18:29:57.476Z,13
2019-03-22T18:34:59.939Z,12
2019-03-22T18:40:02.514Z,13
2019-03-22T18:45:04.935Z,24
2019-03-22T18:50:07.332Z,11
2019-03-22T18:55:09.886Z,10
2019-03-22T19:00:12.326Z,13
2019-03-22T19:05:14.708Z,12
2019-03-22T19:10:17.216Z,11
2019-03-22T19:15:19.606Z,11
2019-03-22T19:20:22.212Z,14
2019-03-22T19:25:24.538Z,10
2019-03-22T19:30:26.990Z,10
2019-03-22T19:35:29.434Z,11
2019-03-22T19:40:31.947Z,13
2019-03-22T19:45:34.334Z,12
2019-03-22T19:50:36.812Z,11
2019-03-22T19:55:39.265Z,12
2019-03-22T20:00:41.718Z,13
2019-03-22T20:05:44.233Z,17
2019-03-22T20:10:46.654Z,16
2019-03-22T20:15:49.148Z,12
2019-03-22T20:20:51.564Z,14
2019-03-22T20:25:54.005Z,16
2019-03-22T20:30:56.461Z,16
2019-03-22T20:35:59.042Z,20
2019-03-22T20:41:01.430Z,17
2019-03-22T20:46:03.821Z,19
2019-03-22T20:51:06.312Z,19
2019-03-22T20:56:08.748Z,38
2019-03-22T21:01:11.201Z,23
2019-03-22T21:06:13.714Z,21
2019-03-22T21:11:16.216Z,18
2019-03-22T21:16:18.611Z,18
2019-03-22T21:21:21.327Z,20
2019-03-22T21:26:23.501Z,21
2019-03-22T21:31:25.968Z,18
2019-03-22T21:36:28.409Z,21
2019-03-22T21:41:30.906Z,22
2019-03-22T21:46:33.347Z,21
2019-03-22T21:51:35.791Z,19
2019-03-22T21:56:38.232Z,22
2019-03-22T22:01:40.702Z,21
2019-03-22T22:06:43.584Z,22
2019-03-22T22:11:45.652Z,22
2019-03-22T22:16:48.365Z,23
2019-03-22T22:21:50.991Z,23
2019-03-22T22:26:53.003Z,23
2019-03-22T22:31:55.460Z,21
2019-03-22T22:36:57.970Z,24
2019-03-22T22:42:00.384Z,25
2019-03-22T22:47:02.835Z,25
2019-03-22T22:52:05.563Z,26
2019-03-22T23:02:10.270Z,25
2019-03-22T23:07:12.725Z,25
2019-03-22T23:12:15.140Z,22
2019-03-22T23:17:17.596Z,25
2019-03-22T23:22:20.101Z,24
2019-03-22T23:27:22.483Z,26
2019-03-22T23:32:24.977Z,25
2019-03-22T23:37:27.404Z,23
2019-03-22T23:42:29.856Z,21
2019-03-22T23:47:32.438Z,25
2019-03-22T23:52:34.771Z,25
2019-03-22T23:57:37.318Z,24
